»·PEaware :: WAT234 KPSP-KSFO

WAT234 :: KPSP-KSFO

FLIGHT INFORMATION

Flight Status: Arrived
Operator:
Walker Air Transport
More flights by this operator :: More flights under this callsign
Pilot: Eduardo Elias G. (24838)
Aircraft: BOEING 737-800
(B738)
More flights by this aircraft type
Origin: KPSP Palm Springs Intl
United States
Destination: KSFO San Francisco Intl
United States
More flights between these airports :: More routes between these airports
Route: +CATH1 PSP V386 PMD AVE MAKRS SERFR SERFR4
File this flight plan on PilotEdge
Remarks:
Altitude:
(Current/Filed)
34,000ft
Speed:
(Current/Filed)
480kts
Departed: 10-Oct-20 03:33 PM
Arrived: 10-Oct-20 04:48 PM
Distance/Time
Traveled:
365nm/1:15
Distance/Time
To Go:
Arrived

Flight Plot

Page will automatically refresh every two minutes.

Flight plan parsing failed; only flown route is shown


Map Options




Map Legend


Flown Route
Filed Route
Departure Airport
Arrival Airport
Navaid (VOR, NDB)
Fix

Horizontal Profiles

Position Reports

Time Latitude Longitude Heading Altitude Ground
Speed
10-Oct-20 15:02 33.823122 -116.505783 285 485ft 0kts
10-Oct-20 15:03 33.823122 -116.505783 285 485ft 0kts
10-Oct-20 15:04 33.823122 -116.505783 285 485ft 0kts
10-Oct-20 15:05 33.823122 -116.505783 285 485ft 0kts
10-Oct-20 15:06 33.823122 -116.505783 285 485ft 0kts
10-Oct-20 15:07 33.823122 -116.505783 285 485ft 0kts
10-Oct-20 15:08 33.823122 -116.505783 285 485ft 0kts
10-Oct-20 15:09 33.823122 -116.505783 285 485ft 0kts
10-Oct-20 15:10 33.823122 -116.505783 285 485ft 0kts
10-Oct-20 15:11 33.823122 -116.505783 285 485ft 0kts
10-Oct-20 15:12 33.823122 -116.505783 285 485ft 0kts
10-Oct-20 15:13 33.823122 -116.505783 285 485ft 0kts
10-Oct-20 15:14 33.823122 -116.505783 285 485ft 0kts
10-Oct-20 15:15 33.823122 -116.505783 285 485ft 0kts
10-Oct-20 15:16 33.823122 -116.505783 285 485ft 0kts
10-Oct-20 15:17 33.823122 -116.505783 285 485ft 0kts
10-Oct-20 15:18 33.823122 -116.505783 285 485ft 0kts
10-Oct-20 15:19 33.823122 -116.505783 285 485ft 0kts
10-Oct-20 15:20 33.823122 -116.505783 285 485ft 0kts
10-Oct-20 15:21 33.822751 -116.505249 358 485ft 2kts
10-Oct-20 15:22 33.822256 -116.505548 51 485ft 0kts
10-Oct-20 15:23 33.822256 -116.505548 51 485ft 0kts
10-Oct-20 15:24 33.822256 -116.505548 51 485ft 0kts
10-Oct-20 15:25 33.822256 -116.505547 51 485ft 0kts
10-Oct-20 15:26 33.822257 -116.505546 51 485ft 0kts
10-Oct-20 15:27 33.822726 -116.504819 53 485ft 10kts
10-Oct-20 15:28 33.821617 -116.502514 144 485ft 8kts
10-Oct-20 15:29 33.819747 -116.500878 143 485ft 9kts
10-Oct-20 15:30 33.818525 -116.499192 89 485ft 0kts
10-Oct-20 15:31 33.818525 -116.499190 89 485ft 0kts
10-Oct-20 15:32 33.820726 -116.499724 323 485ft 63kts
10-Oct-20 15:33 33.854233 -116.529741 320 2404ft 169kts
10-Oct-20 15:34 33.899359 -116.562991 359 3925ft 247kts
10-Oct-20 15:35 33.931667 -116.501495 120 6746ft 274kts
10-Oct-20 15:36 33.874837 -116.437170 128 9802ft 292kts
10-Oct-20 15:37 33.834528 -116.346324 117 12261ft 327kts
10-Oct-20 15:38 33.792432 -116.247755 119 12990ft 331kts
10-Oct-20 15:39 33.716852 -116.199137 164 12974ft 323kts
10-Oct-20 15:40 33.675529 -116.102873 77 14361ft 379kts
10-Oct-20 15:41 33.754860 -116.030336 357 16770ft 393kts
10-Oct-20 15:42 33.844420 -116.099114 312 18857ft 403kts
10-Oct-20 15:43 33.921728 -116.194857 312 20801ft 416kts
10-Oct-20 15:44 34.003429 -116.295556 312 22613ft 429kts
10-Oct-20 15:45 34.085004 -116.395636 312 22939ft 433kts
10-Oct-20 15:46 34.173703 -116.505142 312 22992ft 474kts
10-Oct-20 15:47 34.265873 -116.619576 312 23077ft 474kts
10-Oct-20 15:48 34.357634 -116.733847 312 23162ft 474kts
10-Oct-20 15:49 34.449559 -116.848618 312 23237ft 476kts
10-Oct-20 15:50 34.501905 -116.986174 276 26054ft 438kts
10-Oct-20 15:51 34.520062 -117.133451 278 27508ft 445kts
10-Oct-20 15:52 34.538094 -117.283369 279 28817ft 453kts
10-Oct-20 15:53 34.556720 -117.435461 281 30253ft 454kts
10-Oct-20 15:54 34.574960 -117.586092 282 31901ft 448kts
10-Oct-20 15:55 34.592926 -117.734931 283 33373ft 443kts
10-Oct-20 15:56 34.610326 -117.884030 283 34009ft 452kts
10-Oct-20 15:57 34.630025 -118.037289 292 34011ft 455kts
10-Oct-20 15:58 34.686697 -118.168003 309 34015ft 433kts
10-Oct-20 15:59 34.753329 -118.290153 309 34012ft 435kts
10-Oct-20 16:00 34.819883 -118.413586 309 34038ft 435kts
10-Oct-20 16:01 34.886567 -118.536238 309 34085ft 434kts
10-Oct-20 16:02 34.952792 -118.659383 308 34109ft 432kts
10-Oct-20 16:03 35.018320 -118.781786 308 34108ft 430kts
10-Oct-20 16:04 35.080459 -118.898302 308 34092ft 429kts
10-Oct-20 16:05 35.143090 -119.016138 308 34065ft 428kts
10-Oct-20 16:06 35.207507 -119.137754 308 34024ft 427kts
10-Oct-20 16:07 35.271709 -119.259385 308 34013ft 425kts
10-Oct-20 16:08 35.335673 -119.380992 308 34015ft 423kts
10-Oct-20 16:09 35.399333 -119.502449 308 34015ft 422kts
10-Oct-20 16:10 35.462516 -119.623402 308 34002ft 420kts
10-Oct-20 16:11 35.525740 -119.744252 308 33999ft 419kts
10-Oct-20 16:12 35.588249 -119.865145 308 34003ft 419kts
10-Oct-20 16:13 35.643997 -119.991151 292 34008ft 433kts
10-Oct-20 16:14 35.662698 -120.134194 285 34014ft 443kts
10-Oct-20 16:15 35.677239 -120.284279 284 34006ft 445kts
10-Oct-20 16:16 35.712119 -120.421004 300 34010ft 430kts
10-Oct-20 16:17 35.763000 -120.554470 300 34010ft 430kts
10-Oct-20 16:18 35.813513 -120.687948 300 34010ft 431kts
10-Oct-20 16:19 35.864547 -120.821782 300 34011ft 431kts
10-Oct-20 16:20 35.915079 -120.955611 299 34014ft 431kts
10-Oct-20 16:21 35.963390 -121.083472 299 33972ft 426kts
10-Oct-20 16:22 36.012392 -121.215022 298 31915ft 414kts
10-Oct-20 16:24 36.061220 -121.340944 307 29874ft 395kts
10-Oct-20 16:25 36.143942 -121.424095 327 27871ft 379kts
10-Oct-20 16:26 36.232028 -121.492830 327 25941ft 369kts
10-Oct-20 16:27 36.317948 -121.559708 327 24037ft 361kts
10-Oct-20 16:28 36.402011 -121.625734 327 22160ft 353kts
10-Oct-20 16:29 36.484258 -121.690461 326 20330ft 346kts
10-Oct-20 16:30 36.566597 -121.755308 326 18637ft 350kts
10-Oct-20 16:31 36.647849 -121.819760 325 16935ft 344kts
10-Oct-20 16:32 36.728432 -121.883093 329 15280ft 341kts
10-Oct-20 16:33 36.819346 -121.916257 345 13155ft 341kts
10-Oct-20 16:34 36.910513 -121.941426 344 10964ft 332kts
10-Oct-20 16:35 36.996246 -121.969338 339 9866ft 291kts
10-Oct-20 16:36 37.070166 -121.998989 340 9266ft 277kts
10-Oct-20 16:37 37.143603 -122.027817 340 8801ft 274kts
10-Oct-20 16:38 37.216480 -122.056410 340 8346ft 273kts
10-Oct-20 16:39 37.288754 -122.084785 340 7802ft 275kts
10-Oct-20 16:39 37.346547 -122.107567 340 6553ft 270kts
10-Oct-20 16:41 37.429168 -122.137507 342 4836ft 264kts
10-Oct-20 16:41 37.482449 -122.155523 340 4208ft 216kts
10-Oct-20 16:43 37.541363 -122.192156 299 2908ft 199kts
10-Oct-20 16:43 37.562278 -122.240662 295 2048ft 170kts
10-Oct-20 16:45 37.585835 -122.296738 294 1098ft 149kts
10-Oct-20 16:45 37.602299 -122.335818 295 418ft 149kts
10-Oct-20 16:46 37.619435 -122.376696 295 20ft 76kts
10-Oct-20 16:47 37.621140 -122.383248 195 20ft 0kts
10-Oct-20 16:48 37.621139 -122.383248 195 20ft 0kts
10-Oct-20 16:49 37.620661 -122.383416 188 20ft 3kts
10-Oct-20 16:50 37.617860 -122.379520 166 20ft 11kts
10-Oct-20 16:51 37.617123 -122.380355 275 20ft 0kts
10-Oct-20 16:52 37.617123 -122.380356 275 20ft 0kts
10-Oct-20 16:53 37.617123 -122.380356 275 20ft 0kts

Navigation Log

Ident Type
Flight plan parsing failed, navigation log unavailable